Liberty Island — HPUY — position and weather

sailwx.info

Track history (hours):
 
Tides and Currents Weather Stations Pressure Air Temp Water Temp Dewpoint Dewpoint Depression Visibility Wind Speed Wind Dir Waves Ship Positions

Liberty Island

Last reported at 2014-Dec-11 16:21 UTC. Time now 2014-Dec-20 03:43 UTC.
Position N 35°52' W 010°02'.
Warning: this ship's position is 8 days out of date.

Length 178 m; draft 7.7 m.

Type: Cargo ship. MMSI: 355886000.

Date/timePositionNaut miles runAvg speedWind from/ knotsBaromVisibWave heightAir tempDewpointWater temp
2014-Dec-11 16:21N 35°52' W 010°02'1012.7
2014-Dec-11 15:33N 35°52' W 009°50'1612.6
2014-Dec-11 14:18N 35°53' W 009°30'1012.6
2014-Dec-11 13:29N 35°53' W 009°18'18012.9
2014-Dec-10 23:30N 35°58' W 005°36'1212.5
2014-Dec-10 22:34N 36°03' W 005°23'4 3.5
2014-Dec-10 21:28N 36°07' W 005°22'0 0.2
2014-Dec-10 20:31N 36°07' W 005°22'0 0.1
2014-Dec-10 19:31N 36°07' W 005°22'0 0.1
2014-Dec-10 18:31N 36°07' W 005°22'0 0.0
2014-Dec-10 17:22N 36°07' W 005°22'0 0.0
2014-Dec-10 16:22N 36°07' W 005°22'0 0.0
2014-Dec-10 15:10N 36°07' W 005°22'0 0.0
2014-Dec-10 14:28N 36°07' W 005°22'0 0.1
2014-Dec-10 13:28N 36°07' W 005°22'0 0.1
2014-Dec-10 12:28N 36°07' W 005°22'0 0.0
2014-Dec-10 11:31N 36°07' W 005°22'0 0.1
2014-Dec-10 10:28N 36°07' W 005°22'0 0.2
2014-Dec-10 09:31N 36°07' W 005°22'2 2.4
2014-Dec-10 08:33N 36°05' W 005°21'0 0.3
2014-Dec-10 07:33N 36°05' W 005°21'4 3.5
2014-Dec-10 06:33N 36°05' W 005°16'5 4.6
2014-Dec-10 05:33N 36°06' W 005°11'1 0.9
2014-Dec-10 04:33N 36°06' W 005°10'1 0.6
2014-Dec-10 03:30N 36°07' W 005°10'0 0.2
2014-Dec-10 01:33N 36°07' W 005°10'2 2.5
2014-Dec-10 00:33N 36°06' W 005°13'1 0.9
2014-Dec-09 23:33N 36°06' W 005°12'4 3.6
2014-Dec-09 22:33N 36°06' W 005°08'  
2014-Dec-06 10:33N 36°42' E 013°36'1211.6
2014-Dec-06 09:33N 36°38' E 013°50'1111.3
2014-Dec-06 08:33N 36°35' E 014°03'1211.6
2014-Dec-06 07:33N 36°32' E 014°17'1211.7
2014-Dec-06 06:33N 36°28' E 014°31'41912.3
2014-Dec-04 20:33N 36°03' E 023°09'4512.9
2014-Dec-04 17:05N 36°04' E 024°05'712.9
2014-Dec-04 16:33N 36°04' E 024°13'1312.9
2014-Dec-04 15:33N 36°05' E 024°29'1312.6
2014-Dec-04 14:33N 36°05' E 024°44'1312.5
2014-Dec-04 13:33N 36°06' E 024°60'1312.8
2014-Dec-04 12:33N 36°06' E 025°16'1313.1
2014-Dec-04 11:33N 36°07' E 025°32'1313.2
2014-Dec-04 10:33N 36°07' E 025°48'1413.4
2014-Dec-04 09:32N 36°08' E 026°05'1313.2
2014-Dec-04 08:33N 36°08' E 026°21'1413.9
2014-Dec-04 07:31N 36°06' E 026°39'30313.2
2014-Dec-03 08:31N 35°51' E 032°53'  
Track history (hours):
 
Tides and Currents Weather Stations Pressure Air Temp Water Temp Dewpoint Dewpoint Depression Visibility Wind Speed Wind Dir Waves Ship Positions

Liberty Island

Last reported at 2014-Dec-11 16:21 UTC. Time now 2014-Dec-20 03:43 UTC.
Position N 35°52' W 010°02'.
Warning: this ship's position is 8 days out of date.

Length 178 m; draft 7.7 m.

Type: Cargo ship. MMSI: 355886000.

Date/timePositionNaut miles runAvg speedWind from/ knotsBaromVisibWave heightAir tempDewpointWater temp
2014-Dec-11 16:21N 35°52' W 010°02'1012.7
2014-Dec-11 15:33N 35°52' W 009°50'1612.6
2014-Dec-11 14:18N 35°53' W 009°30'1012.6
2014-Dec-11 13:29N 35°53' W 009°18'18012.9
2014-Dec-10 23:30N 35°58' W 005°36'1212.5
2014-Dec-10 22:34N 36°03' W 005°23'4 3.5
2014-Dec-10 21:28N 36°07' W 005°22'0 0.2
2014-Dec-10 20:31N 36°07' W 005°22'0 0.1
2014-Dec-10 19:31N 36°07' W 005°22'0 0.1
2014-Dec-10 18:31N 36°07' W 005°22'0 0.0
2014-Dec-10 17:22N 36°07' W 005°22'0 0.0
2014-Dec-10 16:22N 36°07' W 005°22'0 0.0
2014-Dec-10 15:10N 36°07' W 005°22'0 0.0
2014-Dec-10 14:28N 36°07' W 005°22'0 0.1
2014-Dec-10 13:28N 36°07' W 005°22'0 0.1
2014-Dec-10 12:28N 36°07' W 005°22'0 0.0
2014-Dec-10 11:31N 36°07' W 005°22'0 0.1
2014-Dec-10 10:28N 36°07' W 005°22'0 0.2
2014-Dec-10 09:31N 36°07' W 005°22'2 2.4
2014-Dec-10 08:33N 36°05' W 005°21'0 0.3
2014-Dec-10 07:33N 36°05' W 005°21'4 3.5
2014-Dec-10 06:33N 36°05' W 005°16'5 4.6
2014-Dec-10 05:33N 36°06' W 005°11'1 0.9
2014-Dec-10 04:33N 36°06' W 005°10'1 0.6
2014-Dec-10 03:30N 36°07' W 005°10'0 0.2
2014-Dec-10 01:33N 36°07' W 005°10'2 2.5
2014-Dec-10 00:33N 36°06' W 005°13'1 0.9
2014-Dec-09 23:33N 36°06' W 005°12'4 3.6
2014-Dec-09 22:33N 36°06' W 005°08'  
2014-Dec-06 10:33N 36°42' E 013°36'1211.6
2014-Dec-06 09:33N 36°38' E 013°50'1111.3
2014-Dec-06 08:33N 36°35' E 014°03'1211.6
2014-Dec-06 07:33N 36°32' E 014°17'1211.7
2014-Dec-06 06:33N 36°28' E 014°31'41912.3
2014-Dec-04 20:33N 36°03' E 023°09'4512.9
2014-Dec-04 17:05N 36°04' E 024°05'712.9
2014-Dec-04 16:33N 36°04' E 024°13'1312.9
2014-Dec-04 15:33N 36°05' E 024°29'1312.6
2014-Dec-04 14:33N 36°05' E 024°44'1312.5
2014-Dec-04 13:33N 36°06' E 024°60'1312.8
2014-Dec-04 12:33N 36°06' E 025°16'1313.1
2014-Dec-04 11:33N 36°07' E 025°32'1313.2
2014-Dec-04 10:33N 36°07' E 025°48'1413.4
2014-Dec-04 09:32N 36°08' E 026°05'1313.2
2014-Dec-04 08:33N 36°08' E 026°21'1413.9
2014-Dec-04 07:31N 36°06' E 026°39'30313.2
2014-Dec-03 08:31N 35°51' E 032°53'  

Dump ship's entire track history